Time;durP1;ratioP1;P1;durP2;ratioP2;P2;SDS_P1;SDS_P2;PMS_P1;PMS_P2;Temp;Humidity;BMP_temperature;BMP_pressure;BME280_temperature;BME280_humidity;BME280_pressure;Samples;Min_cycle;Max_cycle;Signal;HPM_P1;HPM_P2
2023/05/06 00:02:15;;;;;;;12.97;5.30;;;12.00;99.90;;;;;;5029390;28;20207;-69
2023/05/06 00:04:40;;;;;;;13.30;5.10;;;11.70;99.90;;;;;;5049946;28;20720;-70
2023/05/06 00:07:06;;;;;;;14.47;6.03;;;11.60;99.90;;;;;;5050092;28;20721;-71
2023/05/06 00:09:31;;;;;;;9.23;5.40;;;11.60;99.90;;;;;;5030277;28;20208;-71
2023/05/06 00:11:57;;;;;;;7.80;5.47;;;11.60;99.90;;;;;;5048706;28;20286;-71
2023/05/06 00:14:22;;;;;;;12.43;5.90;;;11.50;99.90;;;;;;5029673;28;20721;-71
2023/05/06 00:16:49;;;;;;;12.60;5.60;;;11.40;99.90;;;;;;5047664;28;20200;-71
2023/05/06 00:19:15;;;;;;;7.90;5.43;;;11.40;99.90;;;;;;5031128;28;20207;-70
2023/05/06 00:21:41;;;;;;;11.03;5.90;;;11.40;99.90;;;;;;5045953;28;20198;-71
2023/05/06 00:24:06;;;;;;;13.33;5.43;;;11.30;99.90;;;;;;5046071;28;20186;-71
2023/05/06 00:26:32;;;;;;;11.07;5.07;;;11.40;99.90;;;;;;5044578;28;20204;-71
2023/05/06 00:28:57;;;;;;;11.27;5.80;;;11.30;99.90;;;;;;5026394;28;20636;-70
2023/05/06 00:31:23;;;;;;;9.47;6.07;;;11.30;99.90;;;;;;5041081;28;20204;-72
2023/05/06 00:33:49;;;;;;;11.03;6.37;;;11.40;99.90;;;;;;5025547;28;20167;-72
2023/05/06 00:36:14;;;;;;;8.50;5.50;;;11.20;99.90;;;;;;5039911;28;20176;-70
2023/05/06 00:38:40;;;;;;;10.07;6.20;;;11.10;99.90;;;;;;5021173;28;20588;-71
2023/05/06 00:41:06;;;;;;;11.57;6.27;;;10.90;99.90;;;;;;5041390;28;20311;-71
2023/05/06 00:43:32;;;;;;;11.30;5.90;;;10.90;99.90;;;;;;5048078;28;20577;-71
2023/05/06 00:45:58;;;;;;;10.40;5.93;;;10.90;99.90;;;;;;5030964;28;20250;-72
2023/05/06 00:48:24;;;;;;;11.43;6.20;;;11.00;99.90;;;;;;5047829;28;20268;-71
2023/05/06 00:50:49;;;;;;;8.37;6.20;;;11.00;99.90;;;;;;5047437;28;20203;-73
2023/05/06 00:53:20;;;;;;;14.37;5.97;;;11.00;99.90;;;;;;5048417;28;20219;-71
2023/05/06 00:55:48;;;;;;;12.20;5.97;;;10.90;99.90;;;;;;5050688;28;20231;-73
2023/05/06 00:58:14;;;;;;;8.07;5.40;;;10.90;99.90;;;;;;5030494;28;20207;-71
2023/05/06 01:00:41;;;;;;;8.57;5.70;;;10.90;99.90;;;;;;5048536;28;20537;-69
2023/05/06 01:03:07;;;;;;;12.77;5.67;;;10.90;99.90;;;;;;5030239;28;20175;-71
2023/05/06 01:05:54;;;;;;;10.70;5.83;;;10.80;99.90;;;;;;5046980;28;20296;-70
2023/05/06 01:08:40;;;;;;;10.50;5.80;;;10.70;99.90;;;;;;5047389;28;20283;-71
2023/05/06 01:11:11;;;;;;;8.80;5.83;;;10.80;99.90;;;;;;5028749;28;20224;-71
2023/05/06 01:13:53;;;;;;;9.30;5.17;;;10.70;99.90;;;;;;5046227;28;20310;-71
2023/05/06 01:16:22;;;;;;;7.90;5.33;;;10.70;99.90;;;;;;5042665;28;20239;-73
2023/05/06 01:18:48;;;;;;;7.90;5.50;;;10.60;99.90;;;;;;5030974;28;20200;-70
2023/05/06 01:21:16;;;;;;;10.00;5.90;;;10.70;99.90;;;;;;5031591;28;20249;-71
2023/05/06 01:23:56;;;;;;;10.83;5.77;;;10.60;99.90;;;;;;5044786;28;20620;-69
2023/05/06 01:26:23;;;;;;;13.77;6.90;;;10.80;99.90;;;;;;5049531;28;20294;-71
2023/05/06 01:28:49;;;;;;;10.87;5.77;;;10.70;99.90;;;;;;5051152;28;20206;-71
2023/05/06 01:31:30;;;;;;;8.57;5.50;;;10.80;99.90;;;;;;5049193;28;20216;-70
2023/05/06 01:34:14;;;;;;;8.70;5.63;;;10.70;99.90;;;;;;5049068;28;20287;-72
2023/05/06 01:36:52;;;;;;;11.00;5.87;;;10.60;99.90;;;;;;5048820;28;20172;-69
2023/05/06 01:39:25;;;;;;;7.60;5.50;;;10.60;99.90;;;;;;5029162;28;20196;-71
2023/05/06 01:41:53;;;;;;;9.60;5.97;;;10.80;99.90;;;;;;5047617;28;20215;-70
2023/05/06 01:44:22;;;;;;;12.23;6.17;;;10.80;99.90;;;;;;5047466;28;20218;-71
2023/05/06 01:46:50;;;;;;;9.47;6.10;;;10.80;99.90;;;;;;5047144;28;20199;-71
2023/05/06 01:49:17;;;;;;;10.17;6.70;;;10.60;99.90;;;;;;5043652;28;20620;-69
2023/05/06 01:51:47;;;;;;;10.47;6.57;;;10.60;99.90;;;;;;5044480;28;20187;-72
2023/05/06 01:54:13;;;;;;;9.40;6.60;;;10.50;99.90;;;;;;5025247;28;20187;-71
2023/05/06 01:56:39;;;;;;;12.80;6.00;;;10.50;99.90;;;;;;5043880;28;20216;-70
2023/05/06 01:59:04;;;;;;;10.43;6.17;;;10.40;99.90;;;;;;5030854;28;20217;-71
2023/05/06 02:01:30;;;;;;;12.93;6.63;;;10.40;99.90;;;;;;5051063;28;20249;-71
2023/05/06 02:03:55;;;;;;;11.37;5.60;;;10.50;99.90;;;;;;5033016;28;20219;-71
2023/05/06 02:06:21;;;;;;;11.23;6.53;;;10.30;99.90;;;;;;5050439;28;20595;-70
2023/05/06 02:08:48;;;;;;;12.57;6.30;;;10.40;99.90;;;;;;5049893;28;20246;-71
2023/05/06 02:11:13;;;;;;;7.97;5.50;;;10.50;99.90;;;;;;5031055;28;20211;-70
2023/05/06 02:13:39;;;;;;;11.63;6.30;;;10.20;99.90;;;;;;5048082;28;20675;-69
2023/05/06 02:16:05;;;;;;;13.77;6.60;;;10.20;99.90;;;;;;5052311;28;20342;-71
2023/05/06 02:18:31;;;;;;;15.30;6.10;;;10.30;99.90;;;;;;5049154;28;20196;-71
2023/05/06 02:20:56;;;;;;;12.07;6.60;;;10.10;99.90;;;;;;5033873;28;20219;-72
2023/05/06 02:23:22;;;;;;;9.33;6.57;;;10.20;99.90;;;;;;5043828;28;20208;-71
2023/05/06 02:25:49;;;;;;;11.87;6.47;;;10.10;99.90;;;;;;5046377;28;20203;-71
2023/05/06 02:28:14;;;;;;;9.97;6.17;;;10.00;99.90;;;;;;5046111;28;20210;-70
2023/05/06 02:30:40;;;;;;;12.87;6.23;;;10.00;99.90;;;;;;5044645;28;20207;-71
2023/05/06 02:33:05;;;;;;;11.17;6.50;;;9.90;99.90;;;;;;5019034;28;20191;-71
2023/05/06 02:35:31;;;;;;;13.23;7.13;;;9.90;99.90;;;;;;5043434;28;20253;-71
2023/05/06 02:37:57;;;;;;;11.03;6.87;;;10.00;99.90;;;;;;5043433;28;20291;-71
2023/05/06 02:40:23;;;;;;;11.90;6.77;;;9.90;99.90;;;;;;5049988;28;20207;-70
2023/05/06 02:42:48;;;;;;;11.30;6.13;;;9.70;99.90;;;;;;5050179;28;20194;-71
2023/05/06 02:45:14;;;;;;;9.10;6.40;;;9.80;99.90;;;;;;5032610;28;20221;-71
2023/05/06 02:47:40;;;;;;;11.87;6.70;;;9.70;99.90;;;;;;5030519;28;20232;-71
2023/05/06 02:50:06;;;;;;;10.90;6.33;;;9.70;99.90;;;;;;5048280;28;20219;-71
2023/05/06 02:52:32;;;;;;;11.27;6.63;;;9.60;99.90;;;;;;5047568;28;20571;-71
2023/05/06 02:54:57;;;;;;;10.33;6.13;;;9.60;99.90;;;;;;5033452;28;20219;-71
2023/05/06 02:57:23;;;;;;;12.20;6.23;;;9.60;99.90;;;;;;5027420;28;20237;-71
2023/05/06 02:59:49;;;;;;;9.67;5.53;;;9.50;99.90;;;;;;5028135;28;20203;-71
2023/05/06 03:02:14;;;;;;;13.87;7.33;;;9.40;99.90;;;;;;5025968;28;20210;-72
2023/05/06 03:04:40;;;;;;;11.07;7.03;;;9.60;99.90;;;;;;5028547;28;20258;-71
2023/05/06 03:07:06;;;;;;;12.50;7.47;;;9.60;99.90;;;;;;5043593;28;20207;-71
2023/05/06 03:09:32;;;;;;;10.17;6.83;;;9.70;99.90;;;;;;5044987;28;20637;-70
2023/05/06 03:11:57;;;;;;;12.53;7.07;;;9.60;99.90;;;;;;5043028;28;20223;-70
2023/05/06 03:14:23;;;;;;;8.37;6.23;;;9.50;99.90;;;;;;5038928;28;20212;-70
2023/05/06 03:16:48;;;;;;;8.83;5.80;;;9.40;99.90;;;;;;5028651;28;20203;-70
2023/05/06 03:19:14;;;;;;;12.10;6.23;;;9.50;99.90;;;;;;5050266;28;20216;-71
2023/05/06 03:21:40;;;;;;;11.13;6.60;;;9.40;99.90;;;;;;5048292;28;20196;-71
2023/05/06 03:24:05;;;;;;;13.57;7.17;;;9.50;99.90;;;;;;5049697;28;20183;-70
2023/05/06 03:26:31;;;;;;;9.50;6.00;;;9.30;99.90;;;;;;5047051;28;20204;-70
2023/05/06 03:28:57;;;;;;;13.03;7.07;;;9.30;99.90;;;;;;5047918;28;20309;-70
2023/05/06 03:31:22;;;;;;;9.27;6.57;;;9.20;99.90;;;;;;5027549;28;20207;-71
2023/05/06 03:33:48;;;;;;;12.70;6.07;;;9.30;99.90;;;;;;5047536;28;20176;-70
2023/05/06 03:36:13;;;;;;;10.73;6.20;;;9.20;99.90;;;;;;5045825;28;20267;-71
2023/05/06 03:38:40;;;;;;;11.50;6.57;;;9.10;99.90;;;;;;5028613;28;20232;-70
2023/05/06 03:41:06;;;;;;;10.87;6.77;;;9.00;99.90;;;;;;5044467;28;20219;-70
2023/05/06 03:43:31;;;;;;;10.80;5.60;;;9.00;99.90;;;;;;5026960;28;20208;-71
2023/05/06 03:45:57;;;;;;;12.33;6.80;;;9.00;99.90;;;;;;5043067;28;20993;-71
2023/05/06 03:48:23;;;;;;;10.30;6.20;;;9.00;99.90;;;;;;5040649;28;20184;-71
2023/05/06 03:50:49;;;;;;;9.30;6.60;;;9.00;99.90;;;;;;5041954;28;20283;-70
2023/05/06 03:53:15;;;;;;;10.33;6.20;;;8.90;99.90;;;;;;5043457;28;20215;-70
2023/05/06 03:55:40;;;;;;;14.70;7.27;;;8.90;99.90;;;;;;5026696;28;20223;-70
2023/05/06 03:58:06;;;;;;;10.80;7.10;;;8.90;99.90;;;;;;5049296;28;20775;-71
2023/05/06 04:00:32;;;;;;;10.80;6.43;;;8.90;99.90;;;;;;5029932;28;20619;-71
2023/05/06 04:02:57;;;;;;;12.47;6.97;;;8.90;99.90;;;;;;5048177;28;20215;-71
2023/05/06 04:05:23;;;;;;;9.37;6.57;;;9.10;99.90;;;;;;5047204;28;20214;-71
2023/05/06 04:07:49;;;;;;;10.90;6.43;;;9.20;99.90;;;;;;5046508;28;20207;-71
2023/05/06 04:10:15;;;;;;;11.03;6.40;;;9.20;99.90;;;;;;5045509;28;20272;-71
2023/05/06 04:12:40;;;;;;;12.70;6.87;;;9.20;99.90;;;;;;5044319;28;20535;-72
2023/05/06 04:15:06;;;;;;;11.87;6.17;;;9.20;99.90;;;;;;5042406;28;20210;-71
2023/05/06 04:17:32;;;;;;;11.60;7.27;;;9.20;99.90;;;;;;5045009;28;20237;-71
2023/05/06 04:19:58;;;;;;;17.67;7.00;;;9.10;99.90;;;;;;5043578;28;20216;-70
2023/05/06 04:22:23;;;;;;;10.60;6.53;;;9.10;99.90;;;;;;5041350;28;20207;-70
2023/05/06 04:24:49;;;;;;;11.03;6.60;;;9.00;99.90;;;;;;5028015;28;20225;-72
2023/05/06 04:27:14;;;;;;;11.37;6.53;;;8.90;99.90;;;;;;5030730;28;20221;-71
2023/05/06 04:29:40;;;;;;;10.43;7.10;;;8.90;99.90;;;;;;5025687;28;20294;-71
2023/05/06 04:32:06;;;;;;;11.43;6.97;;;8.90;99.90;;;;;;5040468;28;20215;-71
2023/05/06 04:34:35;;;;;;;9.37;6.43;;;9.10;99.90;;;;;;5045931;28;20226;-72
2023/05/06 04:37:00;;;;;;;10.17;6.50;;;9.00;99.90;;;;;;5031223;28;20207;-71
2023/05/06 04:39:26;;;;;;;9.27;6.37;;;8.90;99.90;;;;;;5030626;28;20198;-71
2023/05/06 04:41:51;;;;;;;8.87;6.67;;;8.90;99.90;;;;;;5028760;28;20204;-71
2023/05/06 04:44:18;;;;;;;13.00;7.13;;;8.90;99.90;;;;;;5047144;28;20283;-70
2023/05/06 04:46:44;;;;;;;8.47;6.60;;;8.90;99.90;;;;;;5045546;28;20212;-71
2023/05/06 04:49:10;;;;;;;9.40;6.47;;;9.10;99.90;;;;;;5031609;28;20624;-71
2023/05/06 04:51:35;;;;;;;10.27;6.30;;;9.20;99.90;;;;;;5043340;28;20240;-71
2023/05/06 04:54:01;;;;;;;9.47;6.53;;;9.10;99.90;;;;;;5045753;28;20211;-71
2023/05/06 04:56:27;;;;;;;11.90;6.47;;;9.10;99.90;;;;;;5042360;28;20203;-72
2023/05/06 04:58:52;;;;;;;11.63;6.67;;;9.00;99.90;;;;;;5025836;28;20218;-70
2023/05/06 05:01:18;;;;;;;10.10;6.17;;;9.10;99.90;;;;;;5041408;28;20217;-72
2023/05/06 05:03:44;;;;;;;13.40;6.90;;;9.10;99.90;;;;;;5023101;28;20187;-71
2023/05/06 05:06:12;;;;;;;12.80;6.80;;;9.10;99.90;;;;;;5042097;28;20183;-71
2023/05/06 05:08:38;;;;;;;10.33;6.67;;;9.10;99.90;;;;;;5021315;28;20214;-71
2023/05/06 05:11:05;;;;;;;10.73;6.50;;;9.10;99.90;;;;;;5022266;28;20298;-72
2023/05/06 05:13:31;;;;;;;11.63;6.77;;;9.30;99.90;;;;;;5045323;28;20207;-70
2023/05/06 05:15:56;;;;;;;8.93;6.83;;;9.30;99.90;;;;;;5048650;28;20200;-71
2023/05/06 05:18:23;;;;;;;11.57;6.40;;;9.40;99.90;;;;;;5048325;28;20255;-71
2023/05/06 05:20:48;;;;;;;10.73;6.13;;;9.20;99.90;;;;;;5028050;28;20240;-71
2023/05/06 05:23:14;;;;;;;10.97;5.80;;;9.20;99.90;;;;;;5046868;28;20254;-71
2023/05/06 05:25:40;;;;;;;10.33;6.53;;;9.00;99.90;;;;;;5027017;28;20273;-69
2023/05/06 05:28:05;;;;;;;10.30;6.23;;;9.00;99.90;;;;;;5045939;28;20218;-71
2023/05/06 05:30:31;;;;;;;10.90;6.37;;;8.90;99.90;;;;;;5025176;28;20728;-71
2023/05/06 05:32:56;;;;;;;11.10;6.30;;;9.00;99.90;;;;;;5026722;28;20211;-72
2023/05/06 05:35:22;;;;;;;9.80;6.50;;;9.00;99.90;;;;;;5043034;28;20808;-71
2023/05/06 05:37:48;;;;;;;18.23;7.63;;;9.10;99.90;;;;;;5024895;28;20733;-70
2023/05/06 05:40:14;;;;;;;13.03;7.00;;;9.00;99.90;;;;;;5045830;28;20215;-71
2023/05/06 05:42:40;;;;;;;9.03;6.43;;;8.90;99.90;;;;;;5043679;28;20172;-71
2023/05/06 05:45:06;;;;;;;11.40;7.40;;;8.90;99.90;;;;;;5053154;28;20520;-72
2023/05/06 05:47:32;;;;;;;11.53;6.93;;;9.00;99.90;;;;;;5045144;28;20573;-70
2023/05/06 05:49:57;;;;;;;8.73;6.50;;;8.90;99.90;;;;;;5030165;28;20210;-73
2023/05/06 05:52:23;;;;;;;9.13;6.70;;;9.00;99.90;;;;;;5034288;28;20215;-71
2023/05/06 05:54:49;;;;;;;12.23;6.93;;;9.00;99.90;;;;;;5051261;28;20534;-71
2023/05/06 05:57:15;;;;;;;15.93;6.57;;;9.00;99.90;;;;;;5035127;28;20647;-71
2023/05/06 05:59:40;;;;;;;10.47;6.77;;;9.10;99.90;;;;;;5048956;28;20275;-71
2023/05/06 06:02:06;;;;;;;9.03;6.27;;;9.00;99.90;;;;;;5049630;28;20583;-72
2023/05/06 06:04:32;;;;;;;12.10;8.37;;;9.10;99.90;;;;;;5048257;28;20638;-71
2023/05/06 06:06:57;;;;;;;9.77;6.03;;;9.10;99.90;;;;;;5034702;28;20215;-70
2023/05/06 06:09:23;;;;;;;10.80;6.93;;;9.00;99.90;;;;;;5030214;28;20225;-71
2023/05/06 06:11:49;;;;;;;10.00;6.67;;;9.00;99.90;;;;;;5041534;28;20200;-71
2023/05/06 06:14:15;;;;;;;9.33;6.87;;;9.00;99.90;;;;;;5048106;28;20230;-72
2023/05/06 06:16:41;;;;;;;11.70;6.90;;;9.20;99.90;;;;;;5043839;28;20227;-71
2023/05/06 06:19:06;;;;;;;13.80;6.63;;;9.20;99.90;;;;;;5046000;28;20265;-70
2023/05/06 06:21:32;;;;;;;11.10;6.70;;;9.20;99.90;;;;;;5042491;28;20548;-71
2023/05/06 06:23:57;;;;;;;9.93;6.67;;;9.20;99.90;;;;;;5044777;28;20227;-72
2023/05/06 06:26:23;;;;;;;9.73;6.80;;;9.40;99.90;;;;;;5041808;28;20678;-71
2023/05/06 06:28:49;;;;;;;12.37;6.53;;;9.20;99.90;;;;;;5032727;28;20737;-71
2023/05/06 06:31:14;;;;;;;10.43;6.20;;;9.20;99.90;;;;;;5051006;28;20203;-72
2023/05/06 06:33:40;;;;;;;11.47;6.97;;;9.00;99.90;;;;;;5049922;28;20180;-72
2023/05/06 06:36:06;;;;;;;9.83;6.77;;;9.10;99.90;;;;;;5050947;28;20187;-71
2023/05/06 06:38:31;;;;;;;11.37;7.00;;;9.10;99.90;;;;;;5049041;28;20211;-71
2023/05/06 06:40:57;;;;;;;10.03;6.90;;;9.10;99.90;;;;;;5048138;28;20211;-72
2023/05/06 06:43:23;;;;;;;11.83;7.40;;;9.10;99.90;;;;;;5048409;28;20887;-72
2023/05/06 06:45:49;;;;;;;12.10;7.47;;;9.10;99.90;;;;;;5029722;28;20164;-72
2023/05/06 06:48:15;;;;;;;12.27;6.43;;;9.00;99.90;;;;;;5048254;28;20176;-71
2023/05/06 06:50:41;;;;;;;14.97;7.43;;;8.90;99.90;;;;;;5025058;28;20200;-72
2023/05/06 06:53:07;;;;;;;13.50;7.70;;;8.80;99.90;;;;;;5028315;28;20206;-72
2023/05/06 06:55:33;;;;;;;9.60;6.53;;;8.90;99.90;;;;;;5043461;28;20195;-70
2023/05/06 06:57:58;;;;;;;11.43;6.33;;;8.80;99.90;;;;;;5027004;28;20541;-71
2023/05/06 07:00:25;;;;;;;11.70;7.20;;;8.80;99.90;;;;;;5046224;28;20277;-71
2023/05/06 07:02:50;;;;;;;11.63;7.03;;;8.80;99.90;;;;;;5042357;28;20197;-70
2023/05/06 07:05:16;;;;;;;12.70;7.07;;;8.80;99.90;;;;;;5042518;28;20540;-72
2023/05/06 07:07:42;;;;;;;10.17;7.27;;;8.80;99.90;;;;;;5044509;28;20199;-72
2023/05/06 07:10:08;;;;;;;64.30;42.83;;;8.70;99.90;;;;;;5032465;28;20321;-72
2023/05/06 07:12:34;;;;;;;14.87;9.50;;;8.80;99.90;;;;;;5049814;28;20753;-71
2023/05/06 07:14:59;;;;;;;16.60;9.10;;;8.90;99.90;;;;;;5033204;28;20226;-73
2023/05/06 07:17:25;;;;;;;13.27;8.10;;;8.90;99.90;;;;;;5049995;28;20681;-72
2023/05/06 07:19:51;;;;;;;14.80;7.47;;;8.90;99.90;;;;;;5028200;28;20262;-72
2023/05/06 07:22:16;;;;;;;12.63;7.73;;;8.90;99.90;;;;;;5047802;28;20218;-71
2023/05/06 07:24:42;;;;;;;11.10;7.00;;;8.80;99.90;;;;;;5047558;28;20250;-71
2023/05/06 07:27:07;;;;;;;13.20;7.73;;;8.80;99.90;;;;;;5047285;28;20250;-71
2023/05/06 07:29:35;;;;;;;11.87;7.60;;;8.80;99.90;;;;;;5043235;28;20204;-73
2023/05/06 07:32:01;;;;;;;13.73;7.77;;;8.90;99.90;;;;;;5044890;28;20654;-71
2023/05/06 07:34:26;;;;;;;10.47;7.90;;;9.00;99.90;;;;;;5028570;28;20207;-71
2023/05/06 07:36:52;;;;;;;10.67;7.60;;;8.90;99.90;;;;;;5042516;28;20246;-72
2023/05/06 07:39:18;;;;;;;14.10;8.93;;;9.00;99.90;;;;;;5025079;28;20404;-72
2023/05/06 07:41:44;;;;;;;10.33;7.47;;;9.20;99.90;;;;;;5039520;28;20200;-71
2023/05/06 07:44:10;;;;;;;11.17;7.07;;;9.10;99.90;;;;;;5046055;28;20279;-71
2023/05/06 07:46:37;;;;;;;12.33;7.87;;;9.20;99.90;;;;;;5042583;28;20279;-72
2023/05/06 07:49:02;;;;;;;11.10;7.57;;;9.20;99.90;;;;;;5033267;28;20206;-71
2023/05/06 07:51:28;;;;;;;11.37;7.77;;;9.20;99.90;;;;;;5049358;28;20176;-71
2023/05/06 07:53:54;;;;;;;12.63;8.73;;;9.10;99.90;;;;;;5047555;28;20287;-71
2023/05/06 07:56:19;;;;;;;10.27;7.93;;;9.00;99.90;;;;;;5030168;28;20679;-71
2023/05/06 07:58:45;;;;;;;11.97;8.83;;;9.10;99.90;;;;;;5027898;28;20577;-71
2023/05/06 08:01:10;;;;;;;9.63;7.80;;;9.00;99.90;;;;;;5046079;28;20809;-70
2023/05/06 08:03:36;;;;;;;10.50;8.27;;;8.90;99.90;;;;;;5044584;28;20175;-71
2023/05/06 08:06:02;;;;;;;10.70;7.47;;;9.10;99.90;;;;;;5045850;28;20242;-70
2023/05/06 08:08:28;;;;;;;11.03;8.27;;;9.10;99.90;;;;;;5044520;28;20217;-71
2023/05/06 08:10:57;;;;;;;10.57;8.03;;;9.20;99.90;;;;;;5042294;28;20626;-73
2023/05/06 08:13:24;;;;;;;13.23;8.83;;;9.10;99.90;;;;;;5025946;28;20215;-71
2023/05/06 08:15:50;;;;;;;11.80;8.43;;;9.10;99.90;;;;;;5043339;28;20183;-71
2023/05/06 08:18:16;;;;;;;11.43;7.90;;;9.30;99.90;;;;;;5026245;28;20171;-71
2023/05/06 08:20:42;;;;;;;11.53;8.40;;;9.30;99.90;;;;;;5041918;28;20214;-71
2023/05/06 08:23:07;;;;;;;10.10;8.27;;;9.20;99.90;;;;;;5038326;28;20284;-71
2023/05/06 08:25:33;;;;;;;12.77;8.60;;;9.30;99.90;;;;;;5046042;28;20225;-72
2023/05/06 08:27:58;;;;;;;12.07;8.60;;;9.10;99.90;;;;;;5048696;28;20240;-73
2023/05/06 08:30:24;;;;;;;11.00;8.50;;;9.20;99.90;;;;;;5048728;28;20214;-72
2023/05/06 08:32:50;;;;;;;11.53;9.07;;;9.10;99.90;;;;;;5047762;28;20199;-71
2023/05/06 08:35:16;;;;;;;12.80;9.77;;;9.10;99.90;;;;;;5047470;28;20686;-72
2023/05/06 08:37:41;;;;;;;13.03;9.90;;;9.10;99.90;;;;;;5045576;28;20206;-70
2023/05/06 08:40:18;;;;;;;12.43;8.53;;;9.10;99.90;;;;;;5028205;28;20207;-73
2023/05/06 08:42:48;;;;;;;12.70;9.80;;;9.10;99.90;;;;;;5043507;28;20308;-72
2023/05/06 08:45:17;;;;;;;12.20;8.53;;;9.20;99.90;;;;;;5048018;28;20164;-72
2023/05/06 08:47:43;;;;;;;14.43;10.10;;;9.20;99.90;;;;;;5041915;28;20577;-71
2023/05/06 08:50:09;;;;;;;13.50;9.67;;;9.40;99.90;;;;;;5043794;28;20199;-72
2023/05/06 08:52:36;;;;;;;13.10;9.20;;;9.40;99.90;;;;;;5023885;28;20580;-71
2023/05/06 08:55:04;;;;;;;14.37;10.47;;;9.20;99.90;;;;;;5042048;28;20215;-74
2023/05/06 08:57:33;;;;;;;15.10;10.23;;;9.00;99.90;;;;;;5023582;28;20172;-72
2023/05/06 09:00:00;;;;;;;11.77;8.80;;;9.00;99.90;;;;;;5040286;28;20200;-72
2023/05/06 09:02:26;;;;;;;14.60;10.07;;;9.10;99.90;;;;;;5021895;28;20257;-72
2023/05/06 09:04:53;;;;;;;12.67;9.00;;;9.20;99.90;;;;;;5046776;28;20199;-71
2023/05/06 09:07:23;;;;;;;13.80;10.23;;;9.10;99.90;;;;;;5048349;28;20207;-71
2023/05/06 09:09:50;;;;;;;16.77;11.50;;;9.00;99.90;;;;;;5028418;28;20871;-72
2023/05/06 09:12:15;;;;;;;11.70;9.23;;;9.10;99.90;;;;;;5047788;28;20172;-72
2023/05/06 09:14:41;;;;;;;14.37;10.07;;;9.20;99.90;;;;;;5050543;28;20217;-72
2023/05/06 09:17:25;;;;;;;13.37;10.03;;;9.30;99.90;;;;;;5050712;28;20207;-72
2023/05/06 09:19:52;;;;;;;14.33;10.27;;;9.20;99.90;;;;;;5046958;28;20290;-69
2023/05/06 09:22:20;;;;;;;14.27;10.27;;;9.30;99.90;;;;;;5049018;28;20277;-71
2023/05/06 09:24:55;;;;;;;12.40;9.93;;;9.30;99.90;;;;;;5046028;28;20219;-71
2023/05/06 09:27:23;;;;;;;14.50;10.43;;;9.30;99.90;;;;;;5048661;28;20182;-72
2023/05/06 09:30:13;;;;;;;12.47;10.00;;;9.40;99.90;;;;;;5043796;28;21028;-72
2023/05/06 09:32:39;;;;;;;13.23;10.10;;;9.50;99.90;;;;;;5030039;28;20239;-71
2023/05/06 09:35:06;;;;;;;12.17;8.33;;;9.50;99.90;;;;;;5028012;28;20230;-72
2023/05/06 09:37:31;;;;;;;10.90;9.33;;;9.40;99.90;;;;;;5043553;28;20200;-72
2023/05/06 09:39:59;;;;;;;9.90;8.63;;;9.40;99.90;;;;;;5042508;28;20217;-72
2023/05/06 09:42:27;;;;;;;14.63;9.07;;;9.40;99.90;;;;;;5030982;28;20191;-72
2023/05/06 09:44:54;;;;;;;12.43;8.90;;;9.50;99.90;;;;;;5051194;28;20277;-72
2023/05/06 09:47:21;;;;;;;10.80;9.10;;;9.60;99.90;;;;;;5052143;28;20196;-71
2023/05/06 09:49:47;;;;;;;12.90;9.17;;;9.60;99.90;;;;;;5049065;28;20261;-70
2023/05/06 09:52:13;;;;;;;11.37;9.13;;;9.60;99.90;;;;;;5050230;28;20231;-73
2023/05/06 09:54:39;;;;;;;12.50;9.57;;;9.50;99.90;;;;;;5049383;28;20730;-71
2023/05/06 09:57:06;;;;;;;10.13;8.70;;;9.50;99.90;;;;;;5048662;28;20173;-72
2023/05/06 09:59:32;;;;;;;13.27;9.30;;;9.50;99.90;;;;;;5030154;28;20279;-72
2023/05/06 10:01:59;;;;;;;10.70;9.10;;;9.50;99.90;;;;;;5045970;28;20212;-72
2023/05/06 10:04:26;;;;;;;12.50;9.63;;;9.60;99.90;;;;;;5046031;28;20203;-72
2023/05/06 10:06:55;;;;;;;12.00;9.37;;;9.40;99.90;;;;;;5043963;28;20203;-72
2023/05/06 10:09:23;;;;;;;12.00;9.27;;;9.60;99.90;;;;;;5045701;28;20565;-72
2023/05/06 10:11:51;;;;;;;13.43;9.70;;;9.60;99.90;;;;;;5041664;28;20201;-72
2023/05/06 10:14:17;;;;;;;18.80;12.30;;;9.80;99.90;;;;;;5048408;28;20282;-73
2023/05/06 10:16:44;;;;;;;12.20;9.83;;;10.00;99.90;;;;;;5024247;28;20204;-72
2023/05/06 10:19:12;;;;;;;12.80;9.23;;;10.10;99.90;;;;;;5043944;28;20199;-76
2023/05/06 10:21:42;;;;;;;10.37;7.37;;;10.10;99.90;;;;;;5051546;28;20247;-72
2023/05/06 10:24:12;;;;;;;10.43;8.33;;;10.00;99.90;;;;;;5051420;28;20188;-70
2023/05/06 10:26:39;;;;;;;10.80;7.80;;;10.10;99.90;;;;;;5049281;28;20234;-74
2023/05/06 10:29:09;;;;;;;10.37;8.13;;;10.20;99.90;;;;;;5050329;28;20223;-73
2023/05/06 10:31:42;;;;;;;10.07;7.50;;;10.10;99.90;;;;;;5043221;28;22037;-74
2023/05/06 10:34:08;;;;;;;9.03;6.73;;;10.00;99.90;;;;;;5049974;28;20670;-76
2023/05/06 10:36:35;;;;;;;10.97;7.23;;;9.80;99.90;;;;;;5050778;28;20600;-74
2023/05/06 10:39:03;;;;;;;8.90;7.40;;;9.80;99.90;;;;;;5031283;28;20200;-74
2023/05/06 10:41:30;;;;;;;9.27;7.40;;;9.80;99.90;;;;;;5049883;28;20211;-73
2023/05/06 10:43:56;;;;;;;10.43;7.53;;;9.80;99.90;;;;;;5050252;28;20203;-74
2023/05/06 10:46:23;;;;;;;13.23;8.50;;;9.70;99.90;;;;;;5033732;28;20207;-73
2023/05/06 10:49:10;;;;;;;9.70;7.47;;;9.60;99.90;;;;;;5027129;28;20188;-74
2023/05/06 10:51:39;;;;;;;9.50;7.50;;;9.50;99.90;;;;;;5046068;28;20176;-73
2023/05/06 10:54:28;;;;;;;8.97;7.67;;;9.50;99.90;;;;;;5029003;28;20557;-74
2023/05/06 10:56:54;;;;;;;13.43;7.87;;;9.50;99.90;;;;;;5048277;28;20212;-73
2023/05/06 10:59:21;;;;;;;10.33;7.57;;;9.50;99.90;;;;;;5050215;28;20233;-74
2023/05/06 11:02:14;;;;;;;11.63;7.87;;;9.50;99.90;;;;;;5049348;28;20291;-74
2023/05/06 11:04:40;;;;;;;10.87;7.77;;;9.50;99.90;;;;;;5029468;28;20223;-74
2023/05/06 11:07:13;;;;;;;9.77;7.03;;;9.50;99.90;;;;;;5048955;28;20705;-74
2023/05/06 11:10:05;;;;;;;11.33;7.30;;;9.60;99.90;;;;;;5048416;28;20215;-75
2023/05/06 11:12:51;;;;;;;8.47;6.93;;;9.50;99.90;;;;;;5031181;28;20183;-73
2023/05/06 11:15:38;;;;;;;10.00;7.10;;;9.40;99.90;;;;;;5048896;28;20727;-73
2023/05/06 11:18:30;;;;;;;12.67;7.23;;;9.30;99.90;;;;;;5046947;28;20224;-74
2023/05/06 11:21:02;;;;;;;8.27;6.63;;;9.30;99.90;;;;;;5047195;28;20216;-75
2023/05/06 11:23:48;;;;;;;9.57;6.10;;;9.40;99.90;;;;;;5043926;28;20665;-73
2023/05/06 11:26:14;;;;;;;6.60;5.90;;;9.50;99.90;;;;;;5031476;28;20195;-73
2023/05/06 11:28:43;;;;;;;6.73;5.40;;;9.40;99.90;;;;;;5049634;28;20286;-74
2023/05/06 11:31:10;;;;;;;7.50;6.03;;;9.40;99.90;;;;;;5028818;28;20207;-74
2023/05/06 11:33:41;;;;;;;6.57;5.70;;;9.50;99.90;;;;;;5047548;28;20170;-73
2023/05/06 11:36:14;;;;;;;6.80;5.00;;;9.50;99.90;;;;;;5048786;28;20163;-74
2023/05/06 11:38:55;;;;;;;7.40;5.13;;;9.40;99.90;;;;;;5049511;28;20212;-74
2023/05/06 11:41:21;;;;;;;8.53;5.63;;;9.50;99.90;;;;;;5045206;28;20622;-73
2023/05/06 11:43:52;;;;;;;8.47;5.20;;;9.50;99.90;;;;;;5031051;28;20724;-72
2023/05/06 11:46:19;;;;;;;8.17;5.17;;;9.50;99.90;;;;;;5028547;28;20200;-74
2023/05/06 11:48:45;;;;;;;7.33;5.27;;;9.60;99.90;;;;;;5047828;28;20720;-73
2023/05/06 11:51:10;;;;;;;5.10;4.53;;;9.70;99.90;;;;;;5048530;28;20179;-72
2023/05/06 11:53:36;;;;;;;7.20;5.47;;;9.70;99.90;;;;;;5030350;28;20253;-74
2023/05/06 11:56:05;;;;;;;5.90;3.90;;;9.70;99.90;;;;;;5047350;28;20562;-75
2023/05/06 11:58:31;;;;;;;5.20;4.60;;;9.40;99.90;;;;;;5050176;28;20674;-73
2023/05/06 12:01:04;;;;;;;7.00;4.00;;;9.30;99.90;;;;;;5042176;28;20231;-74
2023/05/06 12:03:31;;;;;;;5.90;4.27;;;9.30;99.90;;;;;;5043914;28;20187;-73
2023/05/06 12:05:57;;;;;;;5.80;4.37;;;9.20;99.90;;;;;;5041248;28;20231;-74
2023/05/06 12:08:31;;;;;;;5.80;4.63;;;9.30;99.90;;;;;;5046846;28;20203;-71
2023/05/06 12:11:00;;;;;;;6.07;4.20;;;9.40;99.90;;;;;;5045932;28;20917;-74
2023/05/06 12:13:27;;;;;;;5.43;4.07;;;9.30;99.90;;;;;;5042159;28;20211;-74
2023/05/06 12:15:58;;;;;;;4.90;4.13;;;9.20;99.90;;;;;;5046334;28;20264;-74
2023/05/06 12:18:24;;;;;;;5.43;4.27;;;9.20;99.90;;;;;;5047049;28;20243;-74
2023/05/06 12:20:53;;;;;;;5.23;3.93;;;9.20;99.90;;;;;;5048429;28;20207;-72
2023/05/06 12:23:20;;;;;;;5.03;4.03;;;9.30;99.90;;;;;;5044841;28;20215;-73
2023/05/06 12:26:02;;;;;;;5.53;3.93;;;9.50;99.90;;;;;;5030314;28;20627;-75
2023/05/06 12:28:30;;;;;;;5.67;4.13;;;9.50;99.90;;;;;;5046000;28;20196;-73
2023/05/06 12:30:55;;;;;;;5.13;3.83;;;9.10;99.90;;;;;;5047945;28;20207;-75
2023/05/06 12:33:22;;;;;;;5.70;3.97;;;9.20;99.90;;;;;;5031505;28;20747;-74
2023/05/06 12:35:50;;;;;;;5.70;4.33;;;9.40;99.90;;;;;;5046621;28;20200;-74
2023/05/06 12:38:16;;;;;;;5.33;4.37;;;9.40;99.90;;;;;;5044656;28;20211;-74
2023/05/06 12:40:44;;;;;;;6.00;4.50;;;9.50;99.90;;;;;;5025190;28;20211;-75
2023/05/06 12:43:11;;;;;;;5.23;3.97;;;9.50;99.90;;;;;;5041936;28;20216;-74
2023/05/06 12:45:38;;;;;;;5.87;4.30;;;9.60;99.90;;;;;;5049232;28;20652;-75
2023/05/06 12:48:05;;;;;;;4.50;4.10;;;9.70;99.90;;;;;;5024045;28;20180;-74
2023/05/06 12:50:35;;;;;;;4.40;3.60;;;9.70;99.90;;;;;;5045550;28;20225;-74